createdAt,value
2019-06-15T00:01:48.873Z,23.50
2019-06-15T00:04:26.873Z,23.40
2019-06-15T00:07:06.732Z,23.40
2019-06-15T00:09:41.961Z,23.30
2019-06-15T00:12:16.188Z,23.20
2019-06-15T00:14:49.225Z,23.20
2019-06-15T00:17:23.279Z,23.10
2019-06-15T00:20:04.553Z,23.10
2019-06-15T00:22:38.970Z,23.10
2019-06-15T00:25:14.311Z,23.10
2019-06-15T00:27:47.811Z,23.10
2019-06-15T00:30:23.993Z,23.10
2019-06-15T00:32:59.620Z,23.20
2019-06-15T00:35:33.840Z,23.10
2019-06-15T00:38:07.647Z,23.10
2019-06-15T00:40:42.666Z,23.10
2019-06-15T00:43:18.024Z,23.00
2019-06-15T00:45:51.683Z,23.00
2019-06-15T00:48:28.082Z,22.90
2019-06-15T00:51:03.228Z,22.80
2019-06-15T00:53:38.151Z,22.70
2019-06-15T00:56:16.373Z,22.70
2019-06-15T00:58:50.587Z,22.70
2019-06-15T01:01:27.048Z,22.70
2019-06-15T01:04:04.228Z,22.70
2019-06-15T01:06:40.286Z,22.80
2019-06-15T01:09:16.156Z,22.70
2019-06-15T01:12:00.205Z,22.70
2019-06-15T01:14:36.559Z,22.70
2019-06-15T01:17:12.402Z,22.60
2019-06-15T01:19:49.192Z,22.70
2019-06-15T01:22:24.656Z,22.70
2019-06-15T01:25:05.492Z,22.70
2019-06-15T01:27:39.397Z,22.70
2019-06-15T01:30:16.274Z,22.70
2019-06-15T01:32:55.099Z,22.70
2019-06-15T01:35:30.660Z,22.70
2019-06-15T01:38:03.939Z,22.70
2019-06-15T01:40:43.801Z,22.60
2019-06-15T01:43:17.999Z,22.60
2019-06-15T01:45:51.814Z,22.50
2019-06-15T01:48:25.102Z,22.50
2019-06-15T01:50:59.214Z,22.60
2019-06-15T01:53:45.046Z,22.50
2019-06-15T01:56:34.709Z,22.50
2019-06-15T01:59:09.819Z,22.50
2019-06-15T02:01:44.140Z,22.60
2019-06-15T02:04:25.371Z,22.60
2019-06-15T02:07:01.387Z,22.50
2019-06-15T02:09:35.596Z,22.50
2019-06-15T02:12:11.547Z,22.50
2019-06-15T02:14:45.505Z,22.40
2019-06-15T02:17:21.509Z,22.40
2019-06-15T02:19:56.021Z,22.30
2019-06-15T02:22:31.680Z,22.20
2019-06-15T02:25:07.703Z,22.10
2019-06-15T02:27:43.176Z,22.00
2019-06-15T02:30:23.035Z,22.20
2019-06-15T02:33:06.553Z,22.20
2019-06-15T02:35:41.690Z,22.10
2019-06-15T02:38:16.314Z,22.10
2019-06-15T02:40:51.562Z,22.10
2019-06-15T02:43:26.184Z,22.00
2019-06-15T02:46:02.357Z,22.00
2019-06-15T02:48:37.376Z,22.00
2019-06-15T02:51:12.159Z,21.90
2019-06-15T02:53:46.020Z,21.90
2019-06-15T02:56:22.064Z,22.00
2019-06-15T02:58:57.624Z,22.00
2019-06-15T03:01:34.338Z,22.00
2019-06-15T03:04:06.143Z,21.90
2019-06-15T03:06:40.473Z,22.00
2019-06-15T03:09:21.126Z,22.00
2019-06-15T03:11:56.892Z,22.00
2019-06-15T03:14:32.978Z,22.00
2019-06-15T03:17:08.393Z,22.10
2019-06-15T03:19:52.192Z,22.10
2019-06-15T03:22:25.614Z,22.20
2019-06-15T03:24:59.831Z,22.20
2019-06-15T03:27:32.773Z,22.30
2019-06-15T03:30:08.467Z,22.30
2019-06-15T03:32:41.962Z,22.40
2019-06-15T03:35:23.348Z,22.30
2019-06-15T03:38:08.844Z,22.30
2019-06-15T03:40:45.853Z,22.40
2019-06-15T03:43:22.273Z,22.30
2019-06-15T03:46:02.231Z,22.30
2019-06-15T03:48:35.926Z,22.30
2019-06-15T03:51:12.192Z,22.30
2019-06-15T03:53:48.665Z,22.30
2019-06-15T03:56:23.385Z,22.30
2019-06-15T03:58:57.190Z,22.30
2019-06-15T04:01:48.505Z,22.50
2019-06-15T04:04:23.236Z,22.50
2019-06-15T04:06:56.524Z,22.60
2019-06-15T04:09:35.651Z,22.60
2019-06-15T04:12:18.675Z,22.60
2019-06-15T04:14:56.066Z,22.60
2019-06-15T04:17:30.460Z,22.70
2019-06-15T04:20:04.984Z,22.90
2019-06-15T04:22:40.862Z,22.90
2019-06-15T04:25:15.799Z,23.10
2019-06-15T04:27:51.135Z,23.00
2019-06-15T04:30:29.036Z,23.00
2019-06-15T04:33:04.748Z,23.20
2019-06-15T04:35:40.743Z,23.20
2019-06-15T04:38:15.575Z,23.40
2019-06-15T04:40:49.686Z,23.60
2019-06-15T04:43:23.487Z,23.70
2019-06-15T04:45:59.545Z,23.90
2019-06-15T04:48:34.785Z,23.90
2019-06-15T04:51:09.107Z,23.90
2019-06-15T04:53:43.115Z,24.00
2019-06-15T04:56:21.325Z,24.00
2019-06-15T04:58:59.327Z,24.00
2019-06-15T05:01:39.278Z,24.10
2019-06-15T05:04:14.104Z,24.10
2019-06-15T05:06:50.160Z,24.20
2019-06-15T05:09:27.049Z,24.30
2019-06-15T05:12:04.123Z,24.30
2019-06-15T05:14:37.926Z,24.50
2019-06-15T05:17:13.474Z,24.70
2019-06-15T05:19:46.972Z,24.90
2019-06-15T05:22:23.546Z,25.00
2019-06-15T05:24:57.764Z,24.90
2019-06-15T05:27:33.513Z,24.90
2019-06-15T05:30:07.521Z,24.90
2019-06-15T05:32:42.553Z,25.10
2019-06-15T05:35:17.279Z,25.30
2019-06-15T05:37:51.239Z,25.40
2019-06-15T05:40:29.294Z,25.50
2019-06-15T05:43:03.415Z,25.50
2019-06-15T05:45:40.697Z,25.60
2019-06-15T05:48:20.338Z,25.80
2019-06-15T05:50:58.829Z,26.20
2019-06-15T05:53:33.993Z,26.50
2019-06-15T05:56:08.938Z,26.50
2019-06-15T05:58:46.212Z,26.50
2019-06-15T06:01:20.322Z,26.60
2019-06-15T06:03:56.284Z,26.90
2019-06-15T06:06:29.568Z,27.20
2019-06-15T06:09:03.079Z,27.60
2019-06-15T06:11:47.829Z,27.80
2019-06-15T06:14:21.738Z,27.80
2019-06-15T06:16:56.453Z,28.00
2019-06-15T06:19:31.294Z,28.00
2019-06-15T06:22:06.123Z,28.00
2019-06-15T06:24:40.238Z,27.60
2019-06-15T06:27:15.270Z,27.30
2019-06-15T06:29:49.895Z,27.40
2019-06-15T06:32:25.343Z,27.60
2019-06-15T06:34:58.633Z,27.60
2019-06-15T06:37:33.153Z,27.70
2019-06-15T06:40:11.312Z,27.80
2019-06-15T06:42:46.401Z,28.00
2019-06-15T06:45:21.225Z,28.10
2019-06-15T06:47:56.053Z,28.20
2019-06-15T06:50:30.270Z,28.30
2019-06-15T06:53:04.385Z,28.00
2019-06-15T06:55:38.089Z,27.80
2019-06-15T06:58:14.880Z,27.70
2019-06-15T07:00:49.079Z,27.70
2019-06-15T07:03:27.694Z,28.00
2019-06-15T07:06:03.139Z,28.20
2019-06-15T07:08:38.193Z,28.50
2019-06-15T07:11:14.845Z,28.90
2019-06-15T07:13:48.856Z,29.00
2019-06-15T07:16:23.788Z,29.20
2019-06-15T07:18:57.611Z,29.50
2019-06-15T07:21:31.605Z,29.90
2019-06-15T07:24:07.866Z,30.20
2019-06-15T07:26:43.986Z,30.80
2019-06-15T07:29:18.038Z,31.30
2019-06-15T07:31:56.354Z,31.60
2019-06-15T07:34:31.179Z,32.00
2019-06-15T07:37:06.412Z,32.00
2019-06-15T07:39:43.089Z,31.60
2019-06-15T07:42:16.690Z,31.60
2019-06-15T07:44:50.606Z,31.50
2019-06-15T07:47:27.164Z,31.60
2019-06-15T07:50:06.656Z,31.30
2019-06-15T07:52:45.308Z,31.50
2019-06-15T07:55:25.051Z,31.20
2019-06-15T07:58:04.723Z,31.50
2019-06-15T08:00:43.851Z,32.40
2019-06-15T08:03:25.846Z,33.10
2019-06-15T08:06:04.839Z,33.00
2019-06-15T08:08:45.788Z,32.80
2019-06-15T08:11:25.189Z,32.40
2019-06-15T08:14:04.111Z,32.40
2019-06-15T08:16:45.393Z,32.80
2019-06-15T08:19:27.370Z,33.30
2019-06-15T08:22:08.761Z,33.40
2019-06-15T08:24:44.824Z,33.20
2019-06-15T08:27:27.117Z,33.20
2019-06-15T08:30:05.604Z,33.60
2019-06-15T08:32:44.877Z,34.10
2019-06-15T08:35:24.527Z,35.30
2019-06-15T08:38:06.102Z,36.60
2019-06-15T08:40:48.282Z,37.70
2019-06-15T08:43:25.598Z,38.20
2019-06-15T08:46:04.497Z,38.40
2019-06-15T08:48:39.141Z,38.50
2019-06-15T08:51:18.656Z,38.30
2019-06-15T08:53:57.693Z,38.70
2019-06-15T08:56:36.020Z,38.70
2019-06-15T08:59:13.959Z,38.20
2019-06-15T09:01:54.961Z,38.10
2019-06-15T09:04:35.063Z,37.60
2019-06-15T09:07:14.427Z,37.30
2019-06-15T09:09:54.852Z,36.80
2019-06-15T09:12:31.457Z,37.10
2019-06-15T09:15:08.196Z,37.20
2019-06-15T09:17:46.818Z,37.40
2019-06-15T09:20:26.464Z,37.50
2019-06-15T09:23:02.839Z,38.00
2019-06-15T09:25:41.064Z,37.20
2019-06-15T09:28:20.286Z,36.90
2019-06-15T09:31:02.031Z,36.80
2019-06-15T09:33:40.891Z,37.60
2019-06-15T09:36:22.503Z,38.60
2019-06-15T09:39:00.481Z,39.80
2019-06-15T09:41:38.896Z,40.40
2019-06-15T09:44:17.805Z,40.40
2019-06-15T09:46:57.251Z,40.50
2019-06-15T09:49:37.117Z,40.70
2019-06-15T09:52:18.827Z,40.80
2019-06-15T09:54:57.850Z,40.40
2019-06-15T09:57:39.789Z,40.10
2019-06-15T10:00:20.909Z,39.90
2019-06-15T10:03:01.641Z,40.00
2019-06-15T10:05:59.652Z,39.90
2019-06-15T10:08:43.663Z,40.30
2019-06-15T10:11:34.370Z,40.00
2019-06-15T10:14:39.731Z,40.10
2019-06-15T10:17:31.049Z,40.10
2019-06-15T10:20:19.257Z,40.20
2019-06-15T10:23:06.335Z,40.20
2019-06-15T10:25:55.904Z,41.00
2019-06-15T10:28:34.285Z,41.60
2019-06-15T10:31:20.409Z,42.10
2019-06-15T10:34:03.862Z,42.60
2019-06-15T10:36:47.938Z,41.40
2019-06-15T10:39:36.109Z,40.90
2019-06-15T10:42:11.582Z,40.60
2019-06-15T10:44:57.587Z,39.60
2019-06-15T10:47:46.541Z,38.10
2019-06-15T10:50:32.831Z,37.20
2019-06-15T10:53:25.829Z,37.30
2019-06-15T10:56:17.797Z,37.30
2019-06-15T10:59:04.448Z,37.70
2019-06-15T11:01:50.093Z,38.60
2019-06-15T11:04:29.979Z,38.80
2019-06-15T11:07:16.943Z,38.30
2019-06-15T11:10:01.713Z,38.20
2019-06-15T11:12:50.908Z,39.10
2019-06-15T11:15:37.119Z,40.20
2019-06-15T11:18:12.076Z,40.90
2019-06-15T11:21:00.904Z,41.60
2019-06-15T11:23:49.027Z,41.90
2019-06-15T11:26:41.704Z,41.90
2019-06-15T11:29:32.940Z,42.50
2019-06-15T11:32:31.823Z,42.50
2019-06-15T11:35:17.166Z,43.10
2019-06-15T11:37:53.059Z,43.70
2019-06-15T11:40:44.073Z,44.20
2019-06-15T11:43:31.692Z,43.50
2019-06-15T11:46:18.990Z,42.80
2019-06-15T11:49:06.867Z,42.90
2019-06-15T11:51:56.689Z,43.70
2019-06-15T11:54:44.892Z,43.90
2019-06-15T11:57:38.652Z,43.00
2019-06-15T12:00:31.629Z,43.20
2019-06-15T12:03:16.273Z,43.70
2019-06-15T12:06:03.600Z,43.30
2019-06-15T12:08:52.141Z,43.50
2019-06-15T12:11:41.643Z,43.90
2019-06-15T12:14:32.511Z,44.10
2019-06-15T12:17:19.350Z,43.50
2019-06-15T12:20:18.633Z,43.90
2019-06-15T12:23:15.147Z,44.40
2019-06-15T12:26:03.248Z,44.60
2019-06-15T12:29:07.733Z,43.80
2019-06-15T12:31:53.929Z,43.20
2019-06-15T12:34:42.447Z,43.10
2019-06-15T12:37:33.000Z,43.20
2019-06-15T12:40:23.339Z,42.80
2019-06-15T12:43:11.586Z,42.70
2019-06-15T12:46:06.783Z,42.70
2019-06-15T12:48:59.251Z,42.00
2019-06-15T12:51:53.992Z,41.90
2019-06-15T12:54:50.309Z,42.80
2019-06-15T12:57:25.023Z,43.30
2019-06-15T13:00:14.414Z,43.70
2019-06-15T13:03:06.920Z,43.10
2019-06-15T13:05:58.370Z,42.60
2019-06-15T13:08:49.450Z,43.40
2019-06-15T13:11:41.652Z,42.50
2019-06-15T13:14:30.678Z,42.50
2019-06-15T13:17:24.758Z,43.10
2019-06-15T13:20:04.808Z,44.10
2019-06-15T13:22:55.371Z,44.50
2019-06-15T13:25:53.409Z,45.10
2019-06-15T13:28:51.128Z,45.20
2019-06-15T13:31:40.987Z,44.90
2019-06-15T13:34:29.607Z,44.70
2019-06-15T13:37:24.891Z,44.30
2019-06-15T13:40:19.405Z,43.70
2019-06-15T13:43:11.727Z,42.90
2019-06-15T13:46:04.072Z,43.00
2019-06-15T13:48:52.703Z,43.30
2019-06-15T13:51:42.718Z,43.80
2019-06-15T13:54:33.907Z,44.10
2019-06-15T13:57:23.675Z,43.00
2019-06-15T14:00:14.747Z,42.90
2019-06-15T14:02:56.567Z,43.20
2019-06-15T14:05:34.118Z,44.00
2019-06-15T14:08:11.222Z,43.50
2019-06-15T14:10:58.685Z,42.90
2019-06-15T14:13:43.211Z,42.10
2019-06-15T14:16:20.321Z,41.60
2019-06-15T14:19:04.066Z,40.80
2019-06-15T14:21:53.574Z,40.30
2019-06-15T14:24:40.211Z,40.80
2019-06-15T14:27:25.017Z,40.90
2019-06-15T14:30:17.378Z,40.70
2019-06-15T14:33:08.020Z,40.60
2019-06-15T14:36:06.260Z,40.50
2019-06-15T14:39:04.653Z,40.60
2019-06-15T14:41:55.828Z,40.20
2019-06-15T14:44:48.030Z,39.00
2019-06-15T14:47:40.595Z,38.40
2019-06-15T14:50:30.996Z,37.70
2019-06-15T14:53:29.315Z,37.30
2019-06-15T14:56:25.487Z,37.10
2019-06-15T14:59:19.775Z,36.30
2019-06-15T15:02:09.179Z,36.10
2019-06-15T15:04:47.939Z,35.80
2019-06-15T15:07:38.938Z,35.70
2019-06-15T15:10:26.728Z,35.70
2019-06-15T15:13:16.298Z,35.60
2019-06-15T15:16:08.145Z,35.40
2019-06-15T15:19:01.895Z,35.10
2019-06-15T15:21:58.484Z,34.80
2019-06-15T15:24:45.376Z,34.40
2019-06-15T15:27:31.388Z,34.20
2019-06-15T15:30:19.364Z,34.00
2019-06-15T15:33:03.092Z,34.20
2019-06-15T15:36:00.193Z,34.30
2019-06-15T15:38:52.635Z,34.40
2019-06-15T15:41:42.138Z,34.20
2019-06-15T15:44:31.238Z,33.90
2019-06-15T15:47:19.096Z,33.80
2019-06-15T15:50:00.567Z,33.70
2019-06-15T15:52:42.869Z,33.50
2019-06-15T15:55:37.992Z,33.40
2019-06-15T15:58:28.529Z,33.10
2019-06-15T16:01:19.384Z,32.80
2019-06-15T16:04:09.950Z,32.30
2019-06-15T16:07:08.779Z,31.90
2019-06-15T16:09:57.617Z,31.90
2019-06-15T16:12:52.596Z,31.40
2019-06-15T16:15:26.491Z,30.90
2019-06-15T16:18:27.309Z,30.20
2019-06-15T16:21:26.087Z,29.10
2019-06-15T16:24:27.358Z,26.80
2019-06-15T16:27:22.276Z,25.50
2019-06-15T16:30:32.839Z,24.80
2019-06-15T16:33:16.025Z,24.30
2019-06-15T16:36:21.791Z,24.20
2019-06-15T16:39:11.137Z,24.00
2019-06-15T16:41:59.084Z,24.20
2019-06-15T16:44:43.164Z,24.40
2019-06-15T16:47:27.417Z,24.50
2019-06-15T16:50:09.473Z,24.50
2019-06-15T16:52:51.546Z,24.60
2019-06-15T16:55:36.908Z,24.40
2019-06-15T16:58:36.173Z,24.20
2019-06-15T17:01:21.202Z,23.90
2019-06-15T17:04:06.834Z,23.90
2019-06-15T17:06:50.469Z,24.00
2019-06-15T17:09:36.189Z,24.20
2019-06-15T17:12:16.952Z,24.10
2019-06-15T17:14:56.786Z,24.50
2019-06-15T17:17:38.654Z,24.70
2019-06-15T17:20:20.887Z,24.70
2019-06-15T17:23:03.240Z,24.70
2019-06-15T17:25:42.878Z,24.80
2019-06-15T17:28:26.455Z,24.90
2019-06-15T17:31:07.879Z,25.10
2019-06-15T17:33:51.913Z,25.10
2019-06-15T17:36:32.619Z,25.20
2019-06-15T17:39:13.782Z,25.30
2019-06-15T17:42:06.896Z,25.30
2019-06-15T17:44:57.844Z,25.60
2019-06-15T17:48:01.808Z,25.50
2019-06-15T17:50:57.263Z,25.60
2019-06-15T17:53:38.988Z,25.40
2019-06-15T17:56:27.217Z,25.30
2019-06-15T17:59:36.457Z,25.20
2019-06-15T18:02:44.030Z,24.70
2019-06-15T18:05:37.803Z,24.20
2019-06-15T18:08:29.239Z,24.10
2019-06-15T18:11:07.260Z,23.80
2019-06-15T18:14:12.887Z,23.80
2019-06-15T18:17:17.025Z,23.70
2019-06-15T18:20:16.121Z,23.70
2019-06-15T18:22:53.058Z,23.50
2019-06-15T18:26:04.064Z,23.40
2019-06-15T18:29:03.683Z,23.40
2019-06-15T18:31:57.995Z,23.60
2019-06-15T18:35:06.012Z,23.70
2019-06-15T18:38:13.287Z,23.70
2019-06-15T18:41:16.917Z,23.70
2019-06-15T18:44:15.903Z,23.60
2019-06-15T18:47:16.498Z,23.70
2019-06-15T18:50:26.528Z,23.70
2019-06-15T18:53:20.764Z,23.50
2019-06-15T18:56:18.310Z,23.50
2019-06-15T18:59:16.786Z,23.50
2019-06-15T19:02:19.958Z,23.30
2019-06-15T19:05:17.688Z,23.10
2019-06-15T19:08:27.394Z,23.10
2019-06-15T19:11:21.574Z,23.30
2019-06-15T19:14:07.114Z,23.50
2019-06-15T19:16:58.373Z,23.70
2019-06-15T19:19:57.121Z,23.70
2019-06-15T19:22:55.953Z,23.70
2019-06-15T19:25:41.529Z,23.60
2019-06-15T19:28:45.807Z,23.60
2019-06-15T19:31:37.124Z,23.70
2019-06-15T19:34:46.408Z,23.70
2019-06-15T19:37:36.959Z,23.50
2019-06-15T19:40:37.594Z,23.40
2019-06-15T19:43:46.621Z,23.20
2019-06-15T19:46:33.314Z,23.30
2019-06-15T19:49:33.352Z,23.40
2019-06-15T19:52:25.764Z,23.50
2019-06-15T19:55:12.339Z,23.50
2019-06-15T19:58:07.238Z,23.50
2019-06-15T20:01:06.620Z,23.50
2019-06-15T20:03:57.528Z,23.30
2019-06-15T20:06:58.214Z,23.00
2019-06-15T20:09:57.409Z,23.00
2019-06-15T20:12:56.106Z,23.00
2019-06-15T20:15:54.224Z,23.20
2019-06-15T20:18:49.281Z,23.20
2019-06-15T20:21:39.379Z,23.20
2019-06-15T20:24:36.482Z,23.20
2019-06-15T20:27:27.756Z,23.20
2019-06-15T20:30:29.524Z,23.10
2019-06-15T20:33:18.570Z,23.00
2019-06-15T20:36:10.283Z,22.90
2019-06-15T20:38:46.911Z,22.70
2019-06-15T20:41:41.062Z,22.50
2019-06-15T20:44:30.289Z,22.50
2019-06-15T20:47:19.939Z,22.30
2019-06-15T20:50:06.642Z,22.10
2019-06-15T20:53:10.809Z,21.90
2019-06-15T20:55:46.435Z,21.60
2019-06-15T20:58:37.569Z,21.50
2019-06-15T21:01:36.663Z,21.40
2019-06-15T21:04:26.559Z,21.30
2019-06-15T21:07:27.148Z,21.30
2019-06-15T21:10:20.557Z,21.30
2019-06-15T21:13:16.753Z,21.40
2019-06-15T21:16:06.513Z,21.60
2019-06-15T21:18:59.413Z,21.90
2019-06-15T21:21:56.556Z,22.00
2019-06-15T21:24:39.709Z,22.00
2019-06-15T21:27:26.216Z,22.10
2019-06-15T21:30:18.719Z,22.00
2019-06-15T21:33:07.100Z,21.90
2019-06-15T21:36:02.606Z,21.70
2019-06-15T21:38:59.067Z,21.70
2019-06-15T21:41:56.745Z,21.70
2019-06-15T21:44:51.620Z,21.50
2019-06-15T21:47:52.272Z,21.40
2019-06-15T21:50:56.854Z,21.50
2019-06-15T21:53:55.912Z,21.60
2019-06-15T21:56:43.857Z,21.50
2019-06-15T21:59:43.016Z,21.30
2019-06-15T22:02:36.259Z,21.00
2019-06-15T22:05:38.571Z,20.90
2019-06-15T22:08:31.278Z,20.90
2019-06-15T22:11:36.147Z,20.80
2019-06-15T22:14:32.662Z,20.80
2019-06-15T22:17:27.485Z,20.90
2019-06-15T22:20:26.294Z,21.00
2019-06-15T22:23:16.264Z,21.00
2019-06-15T22:26:17.784Z,21.00
2019-06-15T22:29:12.520Z,21.00
2019-06-15T22:32:16.455Z,21.00
2019-06-15T22:34:59.778Z,21.00
2019-06-15T22:37:57.563Z,21.00
2019-06-15T22:40:50.224Z,20.90
2019-06-15T22:43:49.532Z,20.80
2019-06-15T22:46:43.036Z,20.60
2019-06-15T22:49:35.944Z,20.60
2019-06-15T22:52:23.744Z,20.60
2019-06-15T22:55:16.531Z,20.60
2019-06-15T22:58:06.288Z,20.70
2019-06-15T23:00:56.657Z,20.70
2019-06-15T23:03:46.317Z,20.80
2019-06-15T23:06:40.706Z,20.90
2019-06-15T23:09:25.237Z,21.00
2019-06-15T23:12:15.488Z,21.00
2019-06-15T23:15:03.833Z,21.20
2019-06-15T23:17:49.691Z,21.40
2019-06-15T23:20:36.746Z,21.50
2019-06-15T23:23:23.704Z,21.60
2019-06-15T23:26:10.413Z,21.70
2019-06-15T23:28:59.742Z,21.80
2019-06-15T23:31:48.124Z,21.70
2019-06-15T23:34:38.245Z,21.70
2019-06-15T23:37:26.630Z,21.70
2019-06-15T23:40:32.973Z,21.70
2019-06-15T23:43:26.932Z,21.80
2019-06-15T23:46:21.680Z,21.80
2019-06-15T23:49:16.371Z,21.70
2019-06-15T23:52:10.437Z,21.80
2019-06-15T23:55:03.091Z,21.80
2019-06-15T23:57:57.030Z,21.80
